SWR982 LSZH-KRDU
Flight info
| Callsign | SWR982 |
|---|---|
| Flight time | N/A |
| Altitude | 36000 |
| Route | VEBIT T10 TORPA DCT REKLA DCT RLP DCT ROTSI DCT AMODO DCT COHPA UM729 RESMI UN491 LGL UN502 ARGED H490 SENLO UN502 JSY DCT LIZAD DCT LESLU/M079F360 DCT MAPAG/N0452F360 DCT LIMRI/M079F370 DCT 52N020W 51N030W 4930N04000W 48N050W DCT NICSO/N0449F380 DCT PERLU Q475 SCOTS DCT BRADD/N0466F400 DCT LFV DCT SEY DCT EMJAY DCT SWL DCT COUPN TAQLE3 |
| Aircraft | A343/H-SDE2E3FGHIJ4J5M1RWXY/LB1D1 |
Departure
| Time | 2026-05-06 21:56 |
|---|---|
| Airport | Zürich Airport (LSZH) |
Arrival
| Time | N/A |
|---|---|
| Airport | Raleigh-Durham International Airport (KRDU) |
| Time | Latitude | Longitude | Altitude | Speed | Heading |
|---|---|---|---|---|---|
| 2026-05-06 21:44 | 47.46163 | 8.55683 | 1405 ft | 0 kts | 186° |
| 2026-05-06 21:48 | 47.46183 | 8.55686 | 1405 ft | 4 kts | 180° |
| 2026-05-06 21:48 | 47.46210 | 8.55683 | 1413 ft | 4 kts | 167° |
| 2026-05-06 21:49 | 47.46235 | 8.55669 | 1411 ft | 4 kts | 138° |
| 2026-05-06 21:49 | 47.46245 | 8.55647 | 1413 ft | 1 kts | 96° |
| 2026-05-06 21:52 | 47.46245 | 8.55650 | 1413 ft | 2 kts | 96° |
| 2026-05-06 21:52 | 47.46242 | 8.55689 | 1413 ft | 6 kts | 96° |
| 2026-05-06 21:53 | 47.46236 | 8.55771 | 1408 ft | 10 kts | 96° |
| 2026-05-06 21:53 | 47.46228 | 8.55890 | 1410 ft | 13 kts | 96° |
| 2026-05-06 21:53 | 47.46190 | 8.56021 | 1418 ft | 15 kts | 136° |
| 2026-05-06 21:53 | 47.46113 | 8.56127 | 1420 ft | 14 kts | 138° |
| 2026-05-06 21:54 | 47.46046 | 8.56224 | 1420 ft | 12 kts | 124° |
| 2026-05-06 21:54 | 47.46063 | 8.56313 | 1417 ft | 8 kts | 50° |
| 2026-05-06 21:54 | 47.46105 | 8.56364 | 1423 ft | 8 kts | 33° |
| 2026-05-06 21:54 | 47.46176 | 8.56376 | 1421 ft | 13 kts | 335° |
| 2026-05-06 21:55 | 47.46273 | 8.56248 | 1418 ft | 34 kts | 316° |
| 2026-05-06 21:55 | 47.46592 | 8.55810 | 1410 ft | 91 kts | 317° |
| 2026-05-06 21:55 | 47.47210 | 8.54974 | 1386 ft | 147 kts | 316° |
| 2026-05-06 21:55 | 47.48066 | 8.53793 | 1573 ft | 180 kts | 317° |
| 2026-05-06 21:56 | 47.48985 | 8.52524 | 2322 ft | 182 kts | 315° |
| 2026-05-06 21:56 | 47.49912 | 8.51222 | 3021 ft | 187 kts | 314° |
| 2026-05-06 21:56 | 47.50850 | 8.49813 | 3454 ft | 196 kts | 303° |
| 2026-05-06 21:56 | 47.51456 | 8.48005 | 3971 ft | 198 kts | 282° |
| 2026-05-06 21:57 | 47.51652 | 8.46011 | 4633 ft | 199 kts | 271° |
| 2026-05-06 21:57 | 47.51716 | 8.43972 | 5401 ft | 197 kts | 269° |
| 2026-05-06 21:57 | 47.51716 | 8.41926 | 6055 ft | 199 kts | 262° |
| 2026-05-06 21:57 | 47.51304 | 8.39977 | 6666 ft | 202 kts | 239° |
| 2026-05-06 21:58 | 47.50290 | 8.38440 | 7056 ft | 223 kts | 213° |
| 2026-05-06 21:58 | 47.46941 | 8.37076 | 7925 ft | 257 kts | 195° |
| 2026-05-06 21:58 | 47.36860 | 8.30880 | 11160 ft | 293 kts | 246° |
| 2026-05-06 21:58 | 47.33418 | 8.19258 | 12410 ft | 341 kts | 243° |
| 2026-05-06 21:59 | 47.28997 | 8.06602 | 14618 ft | 356 kts | 242° |
| 2026-05-06 21:59 | 47.27469 | 7.92091 | 16832 ft | 374 kts | 275° |
| 2026-05-06 21:59 | 47.29119 | 7.76703 | 18860 ft | 387 kts | 277° |
| 2026-05-06 21:59 | 47.30978 | 7.60848 | 20744 ft | 398 kts | 283° |
| 2026-05-06 22:00 | 47.34260 | 7.45285 | 22593 ft | 406 kts | 288° |
| 2026-05-06 22:00 | 47.37775 | 7.29183 | 24017 ft | 419 kts | 287° |
| 2026-05-06 22:00 | 47.41138 | 7.12461 | 25280 ft | 428 kts | 283° |
| 2026-05-06 22:00 | 47.44509 | 6.89767 | 26937 ft | 437 kts | 282° |
| 2026-05-06 22:01 | 47.49042 | 6.54008 | 28866 ft | 458 kts | 276° |
| 2026-05-06 22:01 | 47.51413 | 6.16028 | 30720 ft | 470 kts | 276° |
| 2026-05-06 22:01 | 47.54919 | 5.83631 | 32721 ft | 463 kts | 298° |
| 2026-05-06 22:01 | 47.63291 | 5.69181 | 33599 ft | 463 kts | 313° |
| 2026-05-06 22:02 | 47.75486 | 5.49737 | 34538 ft | 464 kts | 311° |
| 2026-05-06 22:02 | 47.92912 | 5.21223 | 35715 ft | 464 kts | 311° |
| 2026-05-06 22:02 | 48.10192 | 4.92640 | 35950 ft | 460 kts | 311° |
| 2026-05-06 22:02 | 48.26786 | 4.64118 | 35937 ft | 458 kts | 301° |
| 2026-05-06 22:03 | 48.31074 | 4.27311 | 35964 ft | 455 kts | 273° |
| 2026-05-06 22:03 | 48.34378 | 3.89395 | 35958 ft | 456 kts | 277° |
| 2026-05-06 22:03 | 48.40717 | 3.13599 | 35974 ft | 456 kts | 276° |
| 2026-05-06 22:04 | 48.45871 | 2.76176 | 35985 ft | 455 kts | 288° |
| 2026-05-06 22:04 | 48.53039 | 2.40030 | 35995 ft | 454 kts | 285° |
| 2026-05-06 22:04 | 48.64266 | 1.65624 | 35994 ft | 453 kts | 282° |
| 2026-05-06 22:05 | 48.74220 | 0.90939 | 36018 ft | 452 kts | 282° |
| 2026-05-06 22:05 | 48.85640 | 0.16696 | 36001 ft | 451 kts | 286° |
| 2026-05-06 22:06 | 48.98385 | -0.57043 | 36024 ft | 450 kts | 284° |
| 2026-05-06 22:06 | 49.10423 | -1.30586 | 36027 ft | 449 kts | 284° |
| 2026-05-06 22:07 | 49.22131 | -2.04654 | 36009 ft | 447 kts | 283° |
| 2026-05-06 22:07 | 49.32557 | -2.65996 | 36028 ft | 446 kts | 284° |
| 2026-05-06 22:08 | 49.44616 | -3.39969 | 36008 ft | 446 kts | 283° |
| 2026-05-06 22:08 | 49.56111 | -4.13648 | 36024 ft | 444 kts | 283° |
| 2026-05-06 22:09 | 49.64858 | -4.48998 | 36027 ft | 445 kts | 304° |
| 2026-05-06 22:09 | 49.78701 | -4.80830 | 36016 ft | 446 kts | 301° |
| 2026-05-06 22:09 | 50.04811 | -5.46552 | 36020 ft | 446 kts | 301° |
| 2026-05-06 22:10 | 50.30582 | -6.12776 | 36018 ft | 449 kts | 301° |
| 2026-05-06 22:10 | 50.56215 | -6.80313 | 36005 ft | 451 kts | 301° |
| 2026-05-06 22:11 | 50.81657 | -7.49129 | 36002 ft | 455 kts | 301° |
| 2026-05-06 22:11 | 51.00152 | -8.08888 | 36002 ft | 460 kts | 272° |
| 2026-05-06 22:12 | 51.01909 | -8.60895 | 36002 ft | 462 kts | 287° |
| 2026-05-06 22:12 | 51.16355 | -9.40373 | 36001 ft | 468 kts | 287° |
| 2026-05-06 22:13 | 51.30228 | -10.20800 | 36007 ft | 470 kts | 286° |
| 2026-05-06 22:13 | 51.43493 | -11.01409 | 36002 ft | 471 kts | 285° |
| 2026-05-06 22:14 | 51.56268 | -11.82890 | 35991 ft | 469 kts | 284° |
| 2026-05-06 22:14 | 51.68352 | -12.63996 | 35976 ft | 466 kts | 283° |
| 2026-05-06 22:15 | 51.79899 | -13.45554 | 35991 ft | 463 kts | 282° |
| 2026-05-06 22:15 | 51.90790 | -14.27112 | 35986 ft | 462 kts | 281° |
| 2026-05-06 22:16 | 52.00500 | -15.08159 | 36143 ft | 457 kts | 272° |
| 2026-05-06 22:16 | 52.00887 | -15.49285 | 36941 ft | 452 kts | 270° |
| 2026-05-06 22:16 | 52.01585 | -15.89446 | 36971 ft | 450 kts | 270° |
| 2026-05-06 22:17 | 52.02395 | -16.70515 | 36971 ft | 447 kts | 269° |
| 2026-05-06 22:17 | 52.02660 | -17.51514 | 36971 ft | 447 kts | 268° |
| 2026-05-06 22:18 | 52.02376 | -18.31750 | 36974 ft | 446 kts | 267° |
| 2026-05-06 22:18 | 52.01538 | -19.12375 | 36980 ft | 446 kts | 266° |
| 2026-05-06 22:19 | 52.00161 | -19.92982 | 36982 ft | 446 kts | 266° |
| 2026-05-06 22:19 | 51.95685 | -20.73156 | 36972 ft | 446 kts | 263° |
| 2026-05-06 22:20 | 51.90434 | -21.53199 | 36973 ft | 446 kts | 263° |
| 2026-05-06 22:20 | 51.82822 | -22.56531 | 36984 ft | 449 kts | 262° |
| 2026-05-06 22:21 | 51.76260 | -23.36987 | 36969 ft | 451 kts | 261° |
| 2026-05-06 22:21 | 51.69116 | -24.17409 | 36959 ft | 452 kts | 261° |
| 2026-05-06 22:22 | 51.61447 | -24.97448 | 36945 ft | 450 kts | 261° |
| 2026-05-06 22:22 | 51.53315 | -25.76458 | 36938 ft | 450 kts | 260° |
| 2026-05-06 22:23 | 51.44565 | -26.55823 | 36938 ft | 452 kts | 260° |
| 2026-05-06 22:23 | 51.35274 | -27.35124 | 36923 ft | 454 kts | 260° |
| 2026-05-06 22:24 | 51.25334 | -28.14951 | 36920 ft | 460 kts | 259° |
| 2026-05-06 22:24 | 51.14895 | -28.94021 | 36930 ft | 458 kts | 260° |
| 2026-05-06 22:25 | 51.03847 | -29.73419 | 36977 ft | 460 kts | 259° |
| 2026-05-06 22:25 | 50.94435 | -30.53327 | 37005 ft | 460 kts | 263° |
| 2026-05-06 22:26 | 50.85483 | -31.32910 | 37021 ft | 461 kts | 262° |
| 2026-05-06 22:26 | 50.75987 | -32.12720 | 37051 ft | 462 kts | 262° |
| 2026-05-06 22:27 | 50.66018 | -32.91681 | 37072 ft | 461 kts | 262° |
| 2026-05-06 22:27 | 50.55465 | -33.70604 | 37086 ft | 459 kts | 262° |
| 2026-05-06 22:28 | 50.44438 | -34.48838 | 37101 ft | 457 kts | 262° |
| 2026-05-06 22:28 | 50.32934 | -35.26466 | 37113 ft | 457 kts | 262° |
| 2026-05-06 22:29 | 50.21029 | -36.02828 | 37136 ft | 452 kts | 262° |
| 2026-05-06 22:29 | 50.08657 | -36.78710 | 37154 ft | 449 kts | 263° |
| 2026-05-06 22:30 | 49.95945 | -37.53395 | 37169 ft | 445 kts | 263° |
| 2026-05-06 22:30 | 49.82799 | -38.27441 | 37188 ft | 444 kts | 263° |
| 2026-05-06 22:31 | 49.69329 | -39.00264 | 37176 ft | 441 kts | 262° |
| 2026-05-06 22:31 | 49.55421 | -39.72566 | 37198 ft | 439 kts | 262° |
| 2026-05-06 22:32 | 49.48868 | -40.08430 | 37222 ft | 423 kts | 268° |
| 2026-05-06 22:32 | 49.45428 | -40.44276 | 37201 ft | 422 kts | 268° |
| 2026-05-06 22:32 | 49.37586 | -41.14782 | 37210 ft | 421 kts | 267° |
| 2026-05-06 22:33 | 49.29276 | -41.85909 | 37218 ft | 425 kts | 266° |
| 2026-05-06 22:33 | 49.20503 | -42.56940 | 37207 ft | 421 kts | 265° |
| 2026-05-06 22:34 | 49.11407 | -43.26954 | 37199 ft | 419 kts | 264° |
| 2026-05-06 22:34 | 49.01925 | -43.96573 | 37230 ft | 419 kts | 263° |
| 2026-05-06 22:35 | 48.92054 | -44.65507 | 37238 ft | 419 kts | 262° |
| 2026-05-06 22:35 | 48.81710 | -45.34792 | 37246 ft | 419 kts | 261° |
| 2026-05-06 22:36 | 48.70988 | -46.03322 | 37257 ft | 420 kts | 259° |
| 2026-05-06 22:36 | 48.59776 | -46.72312 | 37244 ft | 423 kts | 258° |
| 2026-05-06 22:37 | 48.48046 | -47.41446 | 37273 ft | 426 kts | 257° |
| 2026-05-06 22:37 | 48.35858 | -48.10602 | 37278 ft | 428 kts | 256° |
| 2026-05-06 22:38 | 48.23210 | -48.79598 | 37274 ft | 432 kts | 255° |
| 2026-05-06 22:38 | 48.10027 | -49.48945 | 37276 ft | 434 kts | 255° |
| 2026-05-06 22:39 | 47.95890 | -50.18022 | 37277 ft | 436 kts | 251° |
| 2026-05-06 22:39 | 47.79054 | -50.85986 | 37285 ft | 437 kts | 251° |
| 2026-05-06 22:40 | 47.62138 | -51.53068 | 37289 ft | 437 kts | 251° |
| 2026-05-06 22:40 | 47.47670 | -52.21360 | 37962 ft | 433 kts | 265° |
| 2026-05-06 22:41 | 47.41062 | -52.91747 | 38268 ft | 430 kts | 263° |
| 2026-05-06 22:41 | 47.37474 | -53.26556 | 38280 ft | 428 kts | 263° |
| 2026-05-06 22:42 | 47.29982 | -53.95997 | 38270 ft | 428 kts | 263° |
| 2026-05-06 22:42 | 47.23218 | -54.29788 | 38271 ft | 431 kts | 251° |
| 2026-05-06 22:42 | 47.15226 | -54.62537 | 38276 ft | 431 kts | 253° |
| 2026-05-06 22:43 | 46.99024 | -55.28881 | 38273 ft | 430 kts | 253° |
| 2026-05-06 22:43 | 46.82545 | -55.94362 | 38248 ft | 425 kts | 252° |
| 2026-05-06 22:44 | 46.65869 | -56.58792 | 38236 ft | 428 kts | 252° |
| 2026-05-06 22:44 | 46.48576 | -57.23711 | 38227 ft | 431 kts | 251° |
| 2026-05-06 22:45 | 46.30883 | -57.88366 | 38211 ft | 431 kts | 250° |
| 2026-05-06 22:45 | 46.12850 | -58.52515 | 38201 ft | 430 kts | 249° |
| 2026-05-06 22:46 | 45.94772 | -59.15194 | 38183 ft | 425 kts | 250° |
| 2026-05-06 22:46 | 45.76442 | -59.77163 | 38157 ft | 417 kts | 250° |
| 2026-05-06 22:47 | 45.58046 | -60.37833 | 38147 ft | 409 kts | 249° |
| 2026-05-06 22:47 | 45.39830 | -60.96590 | 38141 ft | 401 kts | 248° |
| 2026-05-06 22:48 | 45.21384 | -61.54655 | 38128 ft | 404 kts | 248° |
| 2026-05-06 22:48 | 45.03744 | -62.12829 | 38137 ft | 404 kts | 252° |
| 2026-05-06 22:49 | 44.87340 | -62.71571 | 38122 ft | 401 kts | 250° |
| 2026-05-06 22:49 | 44.70666 | -63.29715 | 38110 ft | 398 kts | 249° |
| 2026-05-06 22:50 | 44.53976 | -63.86637 | 38070 ft | 393 kts | 248° |
| 2026-05-06 22:50 | 44.32826 | -64.39861 | 38068 ft | 391 kts | 240° |
| 2026-05-06 22:51 | 44.10233 | -64.91620 | 38093 ft | 393 kts | 240° |
| 2026-05-06 22:51 | 43.87241 | -65.43375 | 38073 ft | 392 kts | 239° |
| 2026-05-06 22:52 | 43.63958 | -65.94734 | 38016 ft | 393 kts | 239° |
| 2026-05-06 22:52 | 43.40606 | -66.45407 | 38023 ft | 392 kts | 240° |
| 2026-05-06 22:53 | 43.19876 | -66.89688 | 37999 ft | 393 kts | 240° |
| 2026-05-06 22:53 | 43.15908 | -66.98089 | 37989 ft | 393 kts | 241° |
| 2026-05-06 22:54 | 43.13344 | -67.04671 | 37991 ft | 391 kts | 246° |
| 2026-05-06 22:54 | 43.10969 | -67.11314 | 37983 ft | 391 kts | 246° |
| 2026-05-06 22:55 | 43.08600 | -67.18027 | 37981 ft | 391 kts | 246° |
| 2026-05-06 22:55 | 43.06228 | -67.24719 | 37958 ft | 391 kts | 247° |
| 2026-05-06 22:55 | 43.05038 | -67.28063 | 38082 ft | 390 kts | 247° |
| 2026-05-06 22:56 | 43.03852 | -67.31384 | 38323 ft | 388 kts | 247° |
| 2026-05-06 22:56 | 43.01487 | -67.37998 | 38669 ft | 385 kts | 247° |
| 2026-05-06 22:56 | 43.00317 | -67.41256 | 39004 ft | 379 kts | 247° |
| 2026-05-06 22:57 | 42.99547 | -67.43399 | 39062 ft | 379 kts | 247° |
| 2026-05-06 22:57 | 42.97214 | -67.49899 | 39125 ft | 382 kts | 247° |
| 2026-05-06 22:58 | 42.94858 | -67.56450 | 39181 ft | 386 kts | 247° |
| 2026-05-06 22:58 | 42.92479 | -67.63044 | 39248 ft | 388 kts | 247° |
| 2026-05-06 22:59 | 42.90100 | -67.69621 | 39379 ft | 389 kts | 247° |
| 2026-05-06 22:59 | 42.87697 | -67.76247 | 39518 ft | 390 kts | 247° |
| 2026-05-06 23:00 | 42.85280 | -67.82896 | 39627 ft | 391 kts | 247° |
| 2026-05-06 23:00 | 42.82867 | -67.89523 | 39734 ft | 392 kts | 247° |
| 2026-05-06 23:01 | 42.80429 | -67.96198 | 39840 ft | 393 kts | 247° |
| 2026-05-06 23:01 | 42.77983 | -68.02880 | 39938 ft | 394 kts | 247° |
| 2026-05-06 23:02 | 42.75537 | -68.09547 | 39956 ft | 397 kts | 247° |
| 2026-05-06 23:02 | 42.73060 | -68.16282 | 39955 ft | 396 kts | 247° |
| 2026-05-06 23:03 | 42.70588 | -68.22982 | 39959 ft | 395 kts | 247° |
| 2026-05-06 23:03 | 42.68145 | -68.29592 | 39954 ft | 392 kts | 247° |
| 2026-05-06 23:04 | 42.65687 | -68.36230 | 39950 ft | 392 kts | 247° |
| 2026-05-06 23:04 | 42.63230 | -68.42850 | 39949 ft | 392 kts | 247° |
| 2026-05-06 23:05 | 42.60779 | -68.49437 | 39945 ft | 392 kts | 247° |
| 2026-05-06 23:05 | 42.58312 | -68.56051 | 39950 ft | 391 kts | 246° |
| 2026-05-06 23:06 | 42.55854 | -68.62621 | 39942 ft | 389 kts | 247° |
| 2026-05-06 23:06 | 42.53403 | -68.69161 | 39941 ft | 388 kts | 247° |
| 2026-05-06 23:07 | 42.50968 | -68.75647 | 39932 ft | 388 kts | 247° |
| 2026-05-06 23:07 | 42.48514 | -68.82167 | 39935 ft | 388 kts | 247° |
| 2026-05-06 23:08 | 42.46053 | -68.88690 | 39938 ft | 388 kts | 246° |
| 2026-05-06 23:08 | 42.43592 | -68.95197 | 39915 ft | 387 kts | 247° |
| 2026-05-06 23:09 | 42.41147 | -69.01644 | 39928 ft | 386 kts | 247° |
| 2026-05-06 23:09 | 42.38687 | -69.08123 | 39926 ft | 386 kts | 247° |
| 2026-05-06 23:10 | 42.36237 | -69.14556 | 39919 ft | 386 kts | 247° |
| 2026-05-06 23:10 | 42.33769 | -69.21025 | 39932 ft | 387 kts | 246° |
| 2026-05-06 23:11 | 42.31297 | -69.27489 | 39884 ft | 386 kts | 246° |
| 2026-05-06 23:11 | 42.28823 | -69.33939 | 39917 ft | 386 kts | 247° |
| 2026-05-06 23:12 | 42.26364 | -69.40341 | 39903 ft | 386 kts | 247° |
| 2026-05-06 23:12 | 42.23885 | -69.46781 | 39908 ft | 386 kts | 247° |
| 2026-05-06 23:13 | 42.21402 | -69.53216 | 39914 ft | 386 kts | 246° |
| 2026-05-06 23:13 | 42.18933 | -69.59597 | 39901 ft | 384 kts | 246° |
| 2026-05-06 23:14 | 42.16458 | -69.65978 | 39899 ft | 383 kts | 247° |
| 2026-05-06 23:14 | 42.13985 | -69.72345 | 39894 ft | 383 kts | 247° |
| 2026-05-06 23:15 | 42.11527 | -69.78660 | 39894 ft | 383 kts | 247° |
| 2026-05-06 23:15 | 42.09049 | -69.85012 | 39890 ft | 382 kts | 247° |
| 2026-05-06 23:16 | 42.06565 | -69.91366 | 39889 ft | 383 kts | 247° |
| 2026-05-06 23:16 | 42.04095 | -69.97667 | 39860 ft | 383 kts | 247° |
| 2026-05-06 23:17 | 42.01499 | -70.03946 | 39889 ft | 386 kts | 242° |
| 2026-05-06 23:17 | 41.98423 | -70.09891 | 39871 ft | 388 kts | 240° |
| 2026-05-06 23:18 | 41.95246 | -70.15771 | 39888 ft | 388 kts | 240° |
| 2026-05-06 23:18 | 41.92073 | -70.21599 | 39895 ft | 388 kts | 240° |
| 2026-05-06 23:19 | 41.88887 | -70.27456 | 39875 ft | 387 kts | 240° |
| 2026-05-06 23:19 | 41.85715 | -70.33295 | 39883 ft | 387 kts | 240° |
| 2026-05-06 23:20 | 41.82561 | -70.39094 | 39884 ft | 387 kts | 240° |
| 2026-05-06 23:20 | 41.79382 | -70.44927 | 39884 ft | 387 kts | 240° |
| 2026-05-06 23:21 | 41.76202 | -70.50748 | 39887 ft | 387 kts | 240° |
| 2026-05-06 23:21 | 41.73039 | -70.56528 | 39890 ft | 387 kts | 240° |
| 2026-05-06 23:22 | 41.69855 | -70.62333 | 39890 ft | 386 kts | 240° |
| 2026-05-06 23:22 | 41.66671 | -70.68129 | 39886 ft | 386 kts | 240° |
| 2026-05-06 23:23 | 41.63490 | -70.73909 | 39887 ft | 386 kts | 240° |
| 2026-05-06 23:23 | 41.60299 | -70.79696 | 39856 ft | 386 kts | 240° |
| 2026-05-06 23:24 | 41.57128 | -70.85435 | 39853 ft | 386 kts | 240° |
| 2026-05-06 23:24 | 41.53933 | -70.91206 | 39864 ft | 386 kts | 240° |
| 2026-05-06 23:25 | 41.50743 | -70.96957 | 39856 ft | 385 kts | 240° |
| 2026-05-06 23:25 | 41.47575 | -71.02659 | 39884 ft | 384 kts | 240° |
| 2026-05-06 23:26 | 41.44386 | -71.08388 | 39876 ft | 384 kts | 240° |
| 2026-05-06 23:26 | 41.41197 | -71.14107 | 39875 ft | 384 kts | 241° |
| 2026-05-06 23:27 | 41.37999 | -71.19831 | 39877 ft | 385 kts | 241° |
| 2026-05-06 23:27 | 41.34817 | -71.25515 | 39874 ft | 385 kts | 241° |
| 2026-05-06 23:28 | 41.31607 | -71.31239 | 39875 ft | 385 kts | 241° |
| 2026-05-06 23:28 | 41.28399 | -71.36947 | 39869 ft | 385 kts | 240° |
| 2026-05-06 23:29 | 41.25186 | -71.42655 | 39869 ft | 385 kts | 240° |
| 2026-05-06 23:29 | 41.21994 | -71.48315 | 39867 ft | 385 kts | 240° |
| 2026-05-06 23:30 | 41.18775 | -71.54013 | 39868 ft | 385 kts | 240° |
| 2026-05-06 23:30 | 41.15540 | -71.59696 | 39872 ft | 385 kts | 239° |
| 2026-05-06 23:31 | 41.12132 | -71.65208 | 39838 ft | 386 kts | 238° |
| 2026-05-06 23:31 | 41.08693 | -71.70620 | 39870 ft | 386 kts | 238° |
| 2026-05-06 23:32 | 41.05249 | -71.76088 | 39867 ft | 386 kts | 239° |
| 2026-05-06 23:32 | 41.01817 | -71.81575 | 39867 ft | 386 kts | 239° |
| 2026-05-06 23:33 | 40.98415 | -71.87019 | 39871 ft | 386 kts | 239° |
| 2026-05-06 23:33 | 40.94987 | -71.92493 | 39871 ft | 385 kts | 239° |
| 2026-05-06 23:34 | 40.91563 | -71.97946 | 39867 ft | 384 kts | 239° |
| 2026-05-06 23:34 | 40.88170 | -72.03343 | 39874 ft | 384 kts | 239° |
| 2026-05-06 23:35 | 40.84751 | -72.08772 | 39880 ft | 384 kts | 239° |
| 2026-05-06 23:35 | 40.81330 | -72.14195 | 39876 ft | 384 kts | 239° |
| 2026-05-06 23:36 | 40.77908 | -72.19608 | 39874 ft | 383 kts | 239° |
| 2026-05-06 23:36 | 40.74489 | -72.25006 | 39876 ft | 383 kts | 239° |
| 2026-05-06 23:37 | 40.71094 | -72.30356 | 39875 ft | 382 kts | 239° |
| 2026-05-06 23:37 | 40.67681 | -72.35726 | 39875 ft | 381 kts | 239° |
| 2026-05-06 23:38 | 40.64270 | -72.41086 | 39875 ft | 381 kts | 239° |
| 2026-05-06 23:38 | 40.61018 | -72.46185 | 39868 ft | 381 kts | 239° |
| 2026-05-06 23:39 | 40.59096 | -72.49194 | 39881 ft | 381 kts | 239° |
| 2026-05-06 23:39 | 40.55686 | -72.54528 | 39870 ft | 381 kts | 239° |
| 2026-05-06 23:40 | 40.52275 | -72.59855 | 39875 ft | 381 kts | 239° |
| 2026-05-06 23:40 | 40.48861 | -72.65174 | 39875 ft | 379 kts | 239° |
| 2026-05-06 23:41 | 40.45483 | -72.70429 | 39842 ft | 379 kts | 239° |
| 2026-05-06 23:41 | 40.42077 | -72.75720 | 39873 ft | 378 kts | 239° |
| 2026-05-06 23:42 | 40.38680 | -72.80988 | 39880 ft | 378 kts | 239° |
| 2026-05-06 23:42 | 40.35277 | -72.86256 | 39875 ft | 378 kts | 239° |
| 2026-05-06 23:43 | 40.31897 | -72.91481 | 39885 ft | 378 kts | 239° |
| 2026-05-06 23:43 | 40.28487 | -72.96741 | 39835 ft | 378 kts | 240° |
| 2026-05-06 23:44 | 40.25085 | -73.01975 | 39878 ft | 376 kts | 240° |
| 2026-05-06 23:44 | 40.21714 | -73.07158 | 39878 ft | 376 kts | 240° |
| 2026-05-06 23:45 | 40.18888 | -73.11499 | 39876 ft | 376 kts | 240° |
| 2026-05-06 23:45 | 40.15494 | -73.16701 | 39884 ft | 376 kts | 240° |
| 2026-05-06 23:46 | 40.12096 | -73.21901 | 39884 ft | 376 kts | 240° |
| 2026-05-06 23:46 | 40.08547 | -73.26929 | 39881 ft | 384 kts | 234° |
| 2026-05-06 23:47 | 40.04529 | -73.31596 | 39891 ft | 387 kts | 233° |
| 2026-05-06 23:47 | 40.00437 | -73.36167 | 39889 ft | 387 kts | 232° |
| 2026-05-06 23:48 | 39.96339 | -73.40723 | 39888 ft | 386 kts | 232° |
| 2026-05-06 23:48 | 39.92248 | -73.45284 | 39863 ft | 386 kts | 232° |
| 2026-05-06 23:49 | 39.88181 | -73.49825 | 39906 ft | 387 kts | 232° |
| 2026-05-06 23:49 | 39.84087 | -73.54389 | 39884 ft | 387 kts | 232° |
| 2026-05-06 23:50 | 39.80016 | -73.58920 | 39902 ft | 387 kts | 232° |
| 2026-05-06 23:50 | 39.75913 | -73.63478 | 39447 ft | 389 kts | 233° |
| 2026-05-06 23:50 | 39.73859 | -73.65756 | 39102 ft | 384 kts | 233° |
| 2026-05-06 23:51 | 39.71835 | -73.67985 | 38909 ft | 377 kts | 233° |
| 2026-05-06 23:51 | 39.69849 | -73.70170 | 38614 ft | 372 kts | 233° |
| 2026-05-06 23:51 | 39.67907 | -73.72312 | 38257 ft | 367 kts | 233° |
| 2026-05-06 23:51 | 39.65970 | -73.74454 | 37835 ft | 364 kts | 233° |
| 2026-05-06 23:52 | 39.64046 | -73.76586 | 37415 ft | 361 kts | 233° |
| 2026-05-06 23:52 | 39.62140 | -73.78695 | 37016 ft | 358 kts | 233° |
| 2026-05-06 23:52 | 39.60250 | -73.80785 | 36618 ft | 355 kts | 233° |
| 2026-05-06 23:52 | 39.58400 | -73.82827 | 36222 ft | 353 kts | 233° |
| 2026-05-06 23:53 | 39.56534 | -73.84888 | 35774 ft | 352 kts | 233° |
| 2026-05-06 23:53 | 39.54669 | -73.86948 | 35284 ft | 352 kts | 233° |
| 2026-05-06 23:53 | 39.52801 | -73.89012 | 34775 ft | 353 kts | 233° |
| 2026-05-06 23:53 | 39.50920 | -73.91086 | 34272 ft | 354 kts | 232° |
| 2026-05-06 23:54 | 39.49037 | -73.93160 | 33895 ft | 356 kts | 232° |
| 2026-05-06 23:54 | 39.47144 | -73.95243 | 33258 ft | 358 kts | 232° |
| 2026-05-06 23:54 | 39.45263 | -73.97309 | 32657 ft | 360 kts | 231° |
| 2026-05-06 23:54 | 39.43344 | -73.99415 | 32134 ft | 361 kts | 231° |
| 2026-05-06 23:55 | 39.41413 | -74.01530 | 31927 ft | 365 kts | 230° |
| 2026-05-06 23:55 | 39.39465 | -74.03664 | 31892 ft | 368 kts | 230° |
| 2026-05-06 23:55 | 39.35547 | -74.07940 | 31878 ft | 368 kts | 230° |
| 2026-05-06 23:56 | 39.31621 | -74.12222 | 31892 ft | 370 kts | 230° |
| 2026-05-06 23:56 | 39.27709 | -74.16482 | 31895 ft | 370 kts | 230° |
| 2026-05-06 23:57 | 39.23772 | -74.20766 | 31894 ft | 370 kts | 230° |
| 2026-05-06 23:57 | 39.19827 | -74.25052 | 31892 ft | 370 kts | 230° |
| 2026-05-06 23:58 | 39.15886 | -74.29330 | 31892 ft | 371 kts | 230° |
| 2026-05-06 23:58 | 39.11940 | -74.33610 | 31898 ft | 373 kts | 230° |
| 2026-05-06 23:59 | 39.07958 | -74.37914 | 31888 ft | 372 kts | 230° |
| 2026-05-06 23:59 | 39.03998 | -74.42185 | 31894 ft | 371 kts | 230° |
| 2026-05-07 00:00 | 39.00074 | -74.46417 | 31892 ft | 370 kts | 230° |
| 2026-05-07 00:00 | 38.96131 | -74.50667 | 31900 ft | 371 kts | 230° |
| 2026-05-07 00:01 | 38.92164 | -74.54934 | 31901 ft | 371 kts | 230° |
| 2026-05-07 00:01 | 38.88197 | -74.59193 | 31902 ft | 371 kts | 230° |
| 2026-05-07 00:02 | 38.84228 | -74.63447 | 31901 ft | 371 kts | 230° |
| 2026-05-07 00:02 | 38.80286 | -74.67666 | 31901 ft | 371 kts | 230° |
| 2026-05-07 00:03 | 38.76311 | -74.71916 | 31900 ft | 373 kts | 230° |
| 2026-05-07 00:03 | 38.72308 | -74.76192 | 31904 ft | 375 kts | 230° |
| 2026-05-07 00:04 | 38.68315 | -74.80445 | 31900 ft | 375 kts | 230° |
| 2026-05-07 00:04 | 38.64295 | -74.84719 | 31906 ft | 375 kts | 230° |
| 2026-05-07 00:05 | 38.60282 | -74.88981 | 31906 ft | 375 kts | 230° |
| 2026-05-07 00:05 | 38.56295 | -74.93215 | 31908 ft | 375 kts | 229° |
| 2026-05-07 00:06 | 38.52271 | -74.97477 | 31909 ft | 375 kts | 229° |
| 2026-05-07 00:06 | 38.48197 | -75.01796 | 31904 ft | 386 kts | 229° |
| 2026-05-07 00:07 | 38.44026 | -75.06210 | 31914 ft | 397 kts | 229° |
| 2026-05-07 00:07 | 38.39694 | -75.10788 | 31898 ft | 411 kts | 229° |
| 2026-05-07 00:08 | 38.35281 | -75.15423 | 31898 ft | 414 kts | 227° |
| 2026-05-07 00:08 | 38.30855 | -75.20050 | 31892 ft | 402 kts | 227° |
| 2026-05-07 00:09 | 38.28724 | -75.22263 | 31893 ft | 387 kts | 228° |
| 2026-05-07 00:09 | 38.26665 | -75.24403 | 31886 ft | 377 kts | 228° |
| 2026-05-07 00:09 | 38.22612 | -75.28661 | 31902 ft | 378 kts | 229° |
| 2026-05-07 00:10 | 38.18587 | -75.32897 | 31884 ft | 378 kts | 228° |
| 2026-05-07 00:10 | 38.14499 | -75.37182 | 31899 ft | 382 kts | 228° |
| 2026-05-07 00:11 | 38.10382 | -75.41476 | 31900 ft | 383 kts | 227° |
| 2026-05-07 00:11 | 38.06295 | -75.45725 | 31837 ft | 380 kts | 228° |
| 2026-05-07 00:12 | 38.04277 | -75.47871 | 31594 ft | 376 kts | 230° |
| 2026-05-07 00:12 | 38.02373 | -75.50129 | 31347 ft | 375 kts | 232° |
| 2026-05-07 00:12 | 38.00481 | -75.52419 | 31114 ft | 376 kts | 231° |
| 2026-05-07 00:12 | 37.98581 | -75.54701 | 30840 ft | 377 kts | 230° |
| 2026-05-07 00:13 | 37.96648 | -75.57009 | 30606 ft | 385 kts | 230° |
| 2026-05-07 00:13 | 37.94675 | -75.59349 | 30363 ft | 389 kts | 229° |
| 2026-05-07 00:13 | 37.92685 | -75.61697 | 30144 ft | 391 kts | 229° |
| 2026-05-07 00:13 | 37.90714 | -75.64022 | 29906 ft | 392 kts | 229° |
| 2026-05-07 00:14 | 37.88757 | -75.66416 | 29665 ft | 390 kts | 231° |
| 2026-05-07 00:14 | 37.86757 | -75.68173 | 25559 ft | 291 kts | 188° |